sensor_id;sensor_type;location;lat;lon;timestamp;temperature;humidity
6841;DHT22;3458;53.678;14.080;2023-07-02T00:01:33;18.10;99.90
6841;DHT22;3458;53.678;14.080;2023-07-02T00:03:59;18.10;99.90
6841;DHT22;3458;53.678;14.080;2023-07-02T00:06:24;18.10;99.90
6841;DHT22;3458;53.678;14.080;2023-07-02T00:08:50;18.00;99.90
6841;DHT22;3458;53.678;14.080;2023-07-02T00:11:16;18.00;99.90
6841;DHT22;3458;53.678;14.080;2023-07-02T00:13:41;18.00;99.90
6841;DHT22;3458;53.678;14.080;2023-07-02T00:16:07;18.10;99.90
6841;DHT22;3458;53.678;14.080;2023-07-02T00:18:32;18.00;99.90
6841;DHT22;3458;53.678;14.080;2023-07-02T00:21:01;18.10;99.90
6841;DHT22;3458;53.678;14.080;2023-07-02T00:23:28;18.00;99.90
6841;DHT22;3458;53.678;14.080;2023-07-02T00:25:54;18.00;99.90
6841;DHT22;3458;53.678;14.080;2023-07-02T00:28:20;18.00;99.90
6841;DHT22;3458;53.678;14.080;2023-07-02T00:30:45;18.00;99.90
6841;DHT22;3458;53.678;14.080;2023-07-02T00:33:11;18.00;99.90
6841;DHT22;3458;53.678;14.080;2023-07-02T00:35:37;18.00;99.90
6841;DHT22;3458;53.678;14.080;2023-07-02T00:38:02;18.00;99.90
6841;DHT22;3458;53.678;14.080;2023-07-02T00:40:28;18.00;99.90
6841;DHT22;3458;53.678;14.080;2023-07-02T00:42:53;17.90;99.90
6841;DHT22;3458;53.678;14.080;2023-07-02T00:45:19;17.90;99.90
6841;DHT22;3458;53.678;14.080;2023-07-02T00:47:45;17.90;99.90
6841;DHT22;3458;53.678;14.080;2023-07-02T00:50:11;17.90;99.90
6841;DHT22;3458;53.678;14.080;2023-07-02T00:52:37;17.80;99.90
6841;DHT22;3458;53.678;14.080;2023-07-02T00:55:03;17.80;99.90
6841;DHT22;3458;53.678;14.080;2023-07-02T00:57:29;17.80;99.90
6841;DHT22;3458;53.678;14.080;2023-07-02T00:59:56;17.80;99.90
6841;DHT22;3458;53.678;14.080;2023-07-02T01:02:22;17.80;99.90
6841;DHT22;3458;53.678;14.080;2023-07-02T01:04:51;17.80;99.90
6841;DHT22;3458;53.678;14.080;2023-07-02T01:07:17;17.70;99.90
6841;DHT22;3458;53.678;14.080;2023-07-02T01:09:43;17.70;99.90
6841;DHT22;3458;53.678;14.080;2023-07-02T01:12:09;17.70;99.90
6841;DHT22;3458;53.678;14.080;2023-07-02T01:14:38;17.70;99.90
6841;DHT22;3458;53.678;14.080;2023-07-02T01:17:06;17.70;99.90
6841;DHT22;3458;53.678;14.080;2023-07-02T01:19:54;17.70;99.90
6841;DHT22;3458;53.678;14.080;2023-07-02T01:22:28;17.70;99.90
6841;DHT22;3458;53.678;14.080;2023-07-02T01:24:54;17.70;99.90
6841;DHT22;3458;53.678;14.080;2023-07-02T01:27:20;17.60;99.90
6841;DHT22;3458;53.678;14.080;2023-07-02T01:29:47;17.60;99.90
6841;DHT22;3458;53.678;14.080;2023-07-02T01:32:13;17.60;99.90
6841;DHT22;3458;53.678;14.080;2023-07-02T01:34:39;17.60;99.90
6841;DHT22;3458;53.678;14.080;2023-07-02T01:37:06;17.50;99.90
6841;DHT22;3458;53.678;14.080;2023-07-02T01:39:31;17.50;99.90
6841;DHT22;3458;53.678;14.080;2023-07-02T01:42:11;17.50;99.90
6841;DHT22;3458;53.678;14.080;2023-07-02T01:44:38;17.50;99.90
6841;DHT22;3458;53.678;14.080;2023-07-02T01:47:04;17.50;99.90
6841;DHT22;3458;53.678;14.080;2023-07-02T01:49:30;17.50;99.90
6841;DHT22;3458;53.678;14.080;2023-07-02T01:51:56;17.50;99.90
6841;DHT22;3458;53.678;14.080;2023-07-02T01:54:24;17.50;99.90
6841;DHT22;3458;53.678;14.080;2023-07-02T01:56:49;17.50;99.90
6841;DHT22;3458;53.678;14.080;2023-07-02T01:59:15;17.50;99.90
6841;DHT22;3458;53.678;14.080;2023-07-02T02:01:42;17.50;99.90
6841;DHT22;3458;53.678;14.080;2023-07-02T02:04:08;17.40;99.90
6841;DHT22;3458;53.678;14.080;2023-07-02T02:06:34;17.40;99.90
6841;DHT22;3458;53.678;14.080;2023-07-02T02:09:00;17.40;99.90
6841;DHT22;3458;53.678;14.080;2023-07-02T02:11:26;17.40;99.90
6841;DHT22;3458;53.678;14.080;2023-07-02T02:13:51;17.40;99.90
6841;DHT22;3458;53.678;14.080;2023-07-02T02:16:17;17.40;99.90
6841;DHT22;3458;53.678;14.080;2023-07-02T02:18:42;17.30;99.90
6841;DHT22;3458;53.678;14.080;2023-07-02T02:21:08;17.30;99.90
6841;DHT22;3458;53.678;14.080;2023-07-02T02:23:34;17.30;99.90
6841;DHT22;3458;53.678;14.080;2023-07-02T02:25:59;17.30;99.90
6841;DHT22;3458;53.678;14.080;2023-07-02T02:28:25;17.20;99.90
6841;DHT22;3458;53.678;14.080;2023-07-02T02:30:50;17.20;99.90
6841;DHT22;3458;53.678;14.080;2023-07-02T02:33:16;17.20;99.90
6841;DHT22;3458;53.678;14.080;2023-07-02T02:35:41;17.20;99.90
6841;DHT22;3458;53.678;14.080;2023-07-02T02:38:07;17.00;99.90
6841;DHT22;3458;53.678;14.080;2023-07-02T02:40:32;17.10;99.90
6841;DHT22;3458;53.678;14.080;2023-07-02T02:42:58;17.10;99.90
6841;DHT22;3458;53.678;14.080;2023-07-02T02:45:23;17.10;99.90
6841;DHT22;3458;53.678;14.080;2023-07-02T02:47:49;17.00;99.90
6841;DHT22;3458;53.678;14.080;2023-07-02T02:50:14;17.00;99.90
6841;DHT22;3458;53.678;14.080;2023-07-02T02:52:40;17.00;99.90
6841;DHT22;3458;53.678;14.080;2023-07-02T02:55:07;16.90;99.90
6841;DHT22;3458;53.678;14.080;2023-07-02T02:57:33;16.90;99.90
6841;DHT22;3458;53.678;14.080;2023-07-02T02:59:59;17.00;99.90
6841;DHT22;3458;53.678;14.080;2023-07-02T03:02:24;17.00;99.90
6841;DHT22;3458;53.678;14.080;2023-07-02T03:04:50;17.00;99.90
6841;DHT22;3458;53.678;14.080;2023-07-02T03:07:15;17.00;99.90
6841;DHT22;3458;53.678;14.080;2023-07-02T03:09:41;17.00;99.90
6841;DHT22;3458;53.678;14.080;2023-07-02T03:12:07;17.10;99.90
6841;DHT22;3458;53.678;14.080;2023-07-02T03:14:32;17.00;99.90
6841;DHT22;3458;53.678;14.080;2023-07-02T03:16:58;17.00;99.90
6841;DHT22;3458;53.678;14.080;2023-07-02T03:19:24;16.90;99.90
6841;DHT22;3458;53.678;14.080;2023-07-02T03:21:50;17.00;99.90
6841;DHT22;3458;53.678;14.080;2023-07-02T03:24:15;16.90;99.90
6841;DHT22;3458;53.678;14.080;2023-07-02T03:26:42;17.00;99.90
6841;DHT22;3458;53.678;14.080;2023-07-02T03:29:08;16.90;99.90
6841;DHT22;3458;53.678;14.080;2023-07-02T03:31:34;16.90;99.90
6841;DHT22;3458;53.678;14.080;2023-07-02T03:34:06;17.00;99.90
6841;DHT22;3458;53.678;14.080;2023-07-02T03:36:32;16.90;99.90
6841;DHT22;3458;53.678;14.080;2023-07-02T03:38:58;16.90;99.90
6841;DHT22;3458;53.678;14.080;2023-07-02T03:41:23;16.90;99.90
6841;DHT22;3458;53.678;14.080;2023-07-02T03:43:49;16.90;99.90
6841;DHT22;3458;53.678;14.080;2023-07-02T03:46:14;16.90;99.90
6841;DHT22;3458;53.678;14.080;2023-07-02T03:48:40;16.80;99.90
6841;DHT22;3458;53.678;14.080;2023-07-02T03:51:06;16.80;99.90
6841;DHT22;3458;53.678;14.080;2023-07-02T03:53:32;16.80;99.90
6841;DHT22;3458;53.678;14.080;2023-07-02T03:55:57;16.70;99.90
6841;DHT22;3458;53.678;14.080;2023-07-02T03:58:23;16.70;99.90
6841;DHT22;3458;53.678;14.080;2023-07-02T04:00:48;16.70;99.90
6841;DHT22;3458;53.678;14.080;2023-07-02T04:03:17;16.80;99.90
6841;DHT22;3458;53.678;14.080;2023-07-02T04:05:43;16.80;99.90
6841;DHT22;3458;53.678;14.080;2023-07-02T04:08:09;16.80;99.90
6841;DHT22;3458;53.678;14.080;2023-07-02T04:10:34;16.80;99.90
6841;DHT22;3458;53.678;14.080;2023-07-02T04:13:00;16.80;99.90
6841;DHT22;3458;53.678;14.080;2023-07-02T04:15:25;16.80;99.90
6841;DHT22;3458;53.678;14.080;2023-07-02T04:17:52;16.80;99.90
6841;DHT22;3458;53.678;14.080;2023-07-02T04:20:17;16.70;99.90
6841;DHT22;3458;53.678;14.080;2023-07-02T04:22:47;16.70;99.90
6841;DHT22;3458;53.678;14.080;2023-07-02T04:25:13;16.80;99.90
6841;DHT22;3458;53.678;14.080;2023-07-02T04:27:44;16.70;99.90
6841;DHT22;3458;53.678;14.080;2023-07-02T04:30:11;16.70;99.90
6841;DHT22;3458;53.678;14.080;2023-07-02T04:32:37;16.70;99.90
6841;DHT22;3458;53.678;14.080;2023-07-02T04:35:05;16.70;99.90
6841;DHT22;3458;53.678;14.080;2023-07-02T04:37:31;16.70;99.90
6841;DHT22;3458;53.678;14.080;2023-07-02T04:39:56;16.70;99.90
6841;DHT22;3458;53.678;14.080;2023-07-02T04:42:23;16.70;99.90
6841;DHT22;3458;53.678;14.080;2023-07-02T04:44:53;16.70;99.90
6841;DHT22;3458;53.678;14.080;2023-07-02T04:47:19;16.70;99.90
6841;DHT22;3458;53.678;14.080;2023-07-02T04:49:45;16.80;99.90
6841;DHT22;3458;53.678;14.080;2023-07-02T04:52:10;16.80;99.90
6841;DHT22;3458;53.678;14.080;2023-07-02T04:54:35;16.80;99.90
6841;DHT22;3458;53.678;14.080;2023-07-02T04:57:01;16.80;99.90
6841;DHT22;3458;53.678;14.080;2023-07-02T04:59:26;16.90;99.90
6841;DHT22;3458;53.678;14.080;2023-07-02T05:01:52;16.80;99.90
6841;DHT22;3458;53.678;14.080;2023-07-02T05:04:17;16.90;99.90
6841;DHT22;3458;53.678;14.080;2023-07-02T05:06:43;16.90;99.90
6841;DHT22;3458;53.678;14.080;2023-07-02T05:09:08;16.90;99.90
6841;DHT22;3458;53.678;14.080;2023-07-02T05:11:34;17.00;99.90
6841;DHT22;3458;53.678;14.080;2023-07-02T05:13:59;17.00;99.90
6841;DHT22;3458;53.678;14.080;2023-07-02T05:16:25;17.00;99.90
6841;DHT22;3458;53.678;14.080;2023-07-02T05:18:50;17.00;99.90
6841;DHT22;3458;53.678;14.080;2023-07-02T05:21:19;17.10;99.90
6841;DHT22;3458;53.678;14.080;2023-07-02T05:23:45;17.20;99.90
6841;DHT22;3458;53.678;14.080;2023-07-02T05:26:10;17.20;99.90
6841;DHT22;3458;53.678;14.080;2023-07-02T05:28:36;17.20;99.90
6841;DHT22;3458;53.678;14.080;2023-07-02T05:31:02;17.20;99.90
6841;DHT22;3458;53.678;14.080;2023-07-02T05:33:27;17.10;99.90
6841;DHT22;3458;53.678;14.080;2023-07-02T05:35:53;17.10;99.90
6841;DHT22;3458;53.678;14.080;2023-07-02T05:38:19;17.10;99.90
6841;DHT22;3458;53.678;14.080;2023-07-02T05:40:45;17.10;99.90
6841;DHT22;3458;53.678;14.080;2023-07-02T05:43:11;17.10;99.90
6841;DHT22;3458;53.678;14.080;2023-07-02T05:45:37;17.20;99.90
6841;DHT22;3458;53.678;14.080;2023-07-02T05:48:02;17.20;99.90
6841;DHT22;3458;53.678;14.080;2023-07-02T05:50:28;17.30;99.90
6841;DHT22;3458;53.678;14.080;2023-07-02T05:52:54;17.30;99.90
6841;DHT22;3458;53.678;14.080;2023-07-02T05:55:19;17.30;99.90
6841;DHT22;3458;53.678;14.080;2023-07-02T05:57:46;17.30;99.90
6841;DHT22;3458;53.678;14.080;2023-07-02T06:00:12;17.30;99.90
6841;DHT22;3458;53.678;14.080;2023-07-02T06:02:37;17.30;99.90
6841;DHT22;3458;53.678;14.080;2023-07-02T06:05:03;17.40;99.90
6841;DHT22;3458;53.678;14.080;2023-07-02T06:07:29;17.40;99.90
6841;DHT22;3458;53.678;14.080;2023-07-02T06:09:54;17.40;99.90
6841;DHT22;3458;53.678;14.080;2023-07-02T06:12:20;17.50;99.90
6841;DHT22;3458;53.678;14.080;2023-07-02T06:14:46;17.60;99.90
6841;DHT22;3458;53.678;14.080;2023-07-02T06:17:12;17.60;99.90
6841;DHT22;3458;53.678;14.080;2023-07-02T06:19:38;17.60;99.90
6841;DHT22;3458;53.678;14.080;2023-07-02T06:22:04;17.60;99.90
6841;DHT22;3458;53.678;14.080;2023-07-02T06:24:29;17.60;99.90
6841;DHT22;3458;53.678;14.080;2023-07-02T06:26:55;17.70;99.90
6841;DHT22;3458;53.678;14.080;2023-07-02T06:29:24;17.70;99.90
6841;DHT22;3458;53.678;14.080;2023-07-02T06:31:50;17.70;99.90
6841;DHT22;3458;53.678;14.080;2023-07-02T06:34:16;17.70;99.90
6841;DHT22;3458;53.678;14.080;2023-07-02T06:36:42;17.70;99.90
6841;DHT22;3458;53.678;14.080;2023-07-02T06:39:08;17.70;99.90
6841;DHT22;3458;53.678;14.080;2023-07-02T06:41:36;17.80;99.90
6841;DHT22;3458;53.678;14.080;2023-07-02T06:44:02;17.80;99.90
6841;DHT22;3458;53.678;14.080;2023-07-02T06:46:28;17.90;99.90
6841;DHT22;3458;53.678;14.080;2023-07-02T06:48:55;17.80;99.90
6841;DHT22;3458;53.678;14.080;2023-07-02T06:51:20;17.90;99.90
6841;DHT22;3458;53.678;14.080;2023-07-02T06:53:46;17.90;99.90
6841;DHT22;3458;53.678;14.080;2023-07-02T06:56:12;18.00;99.90
6841;DHT22;3458;53.678;14.080;2023-07-02T06:58:41;18.10;99.90
6841;DHT22;3458;53.678;14.080;2023-07-02T07:01:07;18.10;99.90
6841;DHT22;3458;53.678;14.080;2023-07-02T07:03:33;18.10;99.90
6841;DHT22;3458;53.678;14.080;2023-07-02T07:05:59;18.10;99.90
6841;DHT22;3458;53.678;14.080;2023-07-02T07:08:25;18.00;99.90
6841;DHT22;3458;53.678;14.080;2023-07-02T07:10:50;18.00;99.90
6841;DHT22;3458;53.678;14.080;2023-07-02T07:13:16;18.00;99.90
6841;DHT22;3458;53.678;14.080;2023-07-02T07:15:41;18.10;99.90
6841;DHT22;3458;53.678;14.080;2023-07-02T07:18:08;18.20;99.90
6841;DHT22;3458;53.678;14.080;2023-07-02T07:20:34;18.30;99.90
6841;DHT22;3458;53.678;14.080;2023-07-02T07:23:01;18.30;99.90
6841;DHT22;3458;53.678;14.080;2023-07-02T07:25:27;18.40;99.90
6841;DHT22;3458;53.678;14.080;2023-07-02T07:27:53;18.40;99.90
6841;DHT22;3458;53.678;14.080;2023-07-02T07:30:19;18.40;99.90
6841;DHT22;3458;53.678;14.080;2023-07-02T07:32:51;18.40;99.90
6841;DHT22;3458;53.678;14.080;2023-07-02T07:35:18;18.40;99.90
6841;DHT22;3458;53.678;14.080;2023-07-02T07:37:44;18.40;99.90
6841;DHT22;3458;53.678;14.080;2023-07-02T07:40:10;18.30;99.90
6841;DHT22;3458;53.678;14.080;2023-07-02T07:42:35;18.30;99.90
6841;DHT22;3458;53.678;14.080;2023-07-02T07:45:02;18.30;99.90
6841;DHT22;3458;53.678;14.080;2023-07-02T07:47:28;18.30;99.90
6841;DHT22;3458;53.678;14.080;2023-07-02T07:49:53;18.30;99.90
6841;DHT22;3458;53.678;14.080;2023-07-02T07:52:20;18.30;99.90
6841;DHT22;3458;53.678;14.080;2023-07-02T07:54:45;18.30;99.90
6841;DHT22;3458;53.678;14.080;2023-07-02T07:57:11;18.40;99.90
6841;DHT22;3458;53.678;14.080;2023-07-02T07:59:36;18.50;99.90
6841;DHT22;3458;53.678;14.080;2023-07-02T08:02:02;18.50;99.90
6841;DHT22;3458;53.678;14.080;2023-07-02T08:04:28;18.50;99.90
6841;DHT22;3458;53.678;14.080;2023-07-02T08:06:53;18.60;99.90
6841;DHT22;3458;53.678;14.080;2023-07-02T08:09:20;18.70;99.90
6841;DHT22;3458;53.678;14.080;2023-07-02T08:11:46;18.80;99.90
6841;DHT22;3458;53.678;14.080;2023-07-02T08:14:12;18.80;99.90
6841;DHT22;3458;53.678;14.080;2023-07-02T08:16:37;18.70;99.90
6841;DHT22;3458;53.678;14.080;2023-07-02T08:19:03;18.70;99.90
6841;DHT22;3458;53.678;14.080;2023-07-02T08:21:28;18.50;99.90
6841;DHT22;3458;53.678;14.080;2023-07-02T08:23:54;18.50;99.90
6841;DHT22;3458;53.678;14.080;2023-07-02T08:26:19;18.60;99.90
6841;DHT22;3458;53.678;14.080;2023-07-02T08:28:45;18.70;99.90
6841;DHT22;3458;53.678;14.080;2023-07-02T08:31:10;18.80;99.90
6841;DHT22;3458;53.678;14.080;2023-07-02T08:33:36;18.90;99.90
6841;DHT22;3458;53.678;14.080;2023-07-02T08:36:01;19.00;99.90
6841;DHT22;3458;53.678;14.080;2023-07-02T08:38:27;19.10;99.90
6841;DHT22;3458;53.678;14.080;2023-07-02T08:40:52;19.20;99.90
6841;DHT22;3458;53.678;14.080;2023-07-02T08:43:18;19.30;99.90
6841;DHT22;3458;53.678;14.080;2023-07-02T08:45:44;19.40;99.90
6841;DHT22;3458;53.678;14.080;2023-07-02T08:48:10;19.50;99.90
6841;DHT22;3458;53.678;14.080;2023-07-02T08:50:36;19.50;99.90
6841;DHT22;3458;53.678;14.080;2023-07-02T08:53:02;19.40;99.90
6841;DHT22;3458;53.678;14.080;2023-07-02T08:55:28;19.30;99.90
6841;DHT22;3458;53.678;14.080;2023-07-02T08:57:56;19.20;99.90
6841;DHT22;3458;53.678;14.080;2023-07-02T09:00:26;19.30;99.90
6841;DHT22;3458;53.678;14.080;2023-07-02T09:02:51;19.40;99.90
6841;DHT22;3458;53.678;14.080;2023-07-02T09:05:17;19.50;99.90
6841;DHT22;3458;53.678;14.080;2023-07-02T09:07:47;19.60;99.90
6841;DHT22;3458;53.678;14.080;2023-07-02T09:10:25;19.70;99.90
6841;DHT22;3458;53.678;14.080;2023-07-02T09:13:05;19.80;99.90
6841;DHT22;3458;53.678;14.080;2023-07-02T09:15:38;19.90;99.90
6841;DHT22;3458;53.678;14.080;2023-07-02T09:18:15;19.80;99.90
6841;DHT22;3458;53.678;14.080;2023-07-02T09:20:40;19.80;99.90
6841;DHT22;3458;53.678;14.080;2023-07-02T09:23:06;19.80;99.90
6841;DHT22;3458;53.678;14.080;2023-07-02T09:25:39;19.90;99.70
6841;DHT22;3458;53.678;14.080;2023-07-02T09:30:55;20.10;99.90
6841;DHT22;3458;53.678;14.080;2023-07-02T09:33:27;20.10;98.70
6841;DHT22;3458;53.678;14.080;2023-07-02T09:35:54;19.90;98.60
6841;DHT22;3458;53.678;14.080;2023-07-02T09:38:20;19.90;99.90
6841;DHT22;3458;53.678;14.080;2023-07-02T09:40:50;20.00;99.90
6841;DHT22;3458;53.678;14.080;2023-07-02T09:43:17;20.20;99.90
6841;DHT22;3458;53.678;14.080;2023-07-02T09:45:44;20.30;99.50
6841;DHT22;3458;53.678;14.080;2023-07-02T09:48:12;20.40;98.50
6841;DHT22;3458;53.678;14.080;2023-07-02T09:50:39;20.30;96.10
6841;DHT22;3458;53.678;14.080;2023-07-02T09:53:05;20.20;96.00
6841;DHT22;3458;53.678;14.080;2023-07-02T09:55:31;20.10;96.70
6841;DHT22;3458;53.678;14.080;2023-07-02T09:57:57;20.00;96.90
6841;DHT22;3458;53.678;14.080;2023-07-02T10:00:23;20.00;96.60
6841;DHT22;3458;53.678;14.080;2023-07-02T10:02:49;19.90;95.70
6841;DHT22;3458;53.678;14.080;2023-07-02T10:05:28;19.90;95.40
6841;DHT22;3458;53.678;14.080;2023-07-02T10:07:55;20.00;96.90
6841;DHT22;3458;53.678;14.080;2023-07-02T10:10:29;20.00;96.50
6841;DHT22;3458;53.678;14.080;2023-07-02T10:12:55;20.00;95.70
6841;DHT22;3458;53.678;14.080;2023-07-02T10:15:27;20.00;95.40
6841;DHT22;3458;53.678;14.080;2023-07-02T10:17:57;19.90;94.40
6841;DHT22;3458;53.678;14.080;2023-07-02T10:20:40;19.70;94.90
6841;DHT22;3458;53.678;14.080;2023-07-02T10:23:07;19.60;95.30
6841;DHT22;3458;53.678;14.080;2023-07-02T10:25:37;19.60;95.50
6841;DHT22;3458;53.678;14.080;2023-07-02T10:28:20;19.70;97.00
6841;DHT22;3458;53.678;14.080;2023-07-02T10:30:48;20.00;96.30
6841;DHT22;3458;53.678;14.080;2023-07-02T10:33:17;20.30;93.80
6841;DHT22;3458;53.678;14.080;2023-07-02T10:35:45;20.40;93.50
6841;DHT22;3458;53.678;14.080;2023-07-02T10:38:21;20.40;93.60
6841;DHT22;3458;53.678;14.080;2023-07-02T10:40:53;20.30;93.00
6841;DHT22;3458;53.678;14.080;2023-07-02T10:43:25;20.30;92.70
6841;DHT22;3458;53.678;14.080;2023-07-02T10:45:50;20.30;93.50
6841;DHT22;3458;53.678;14.080;2023-07-02T10:48:16;20.30;93.30
6841;DHT22;3458;53.678;14.080;2023-07-02T10:50:41;20.50;91.70
6841;DHT22;3458;53.678;14.080;2023-07-02T10:53:15;20.60;91.30
6841;DHT22;3458;53.678;14.080;2023-07-02T10:55:41;20.70;88.50
6841;DHT22;3458;53.678;14.080;2023-07-02T10:58:08;20.80;88.00
6841;DHT22;3458;53.678;14.080;2023-07-02T11:01:03;20.80;88.70
6841;DHT22;3458;53.678;14.080;2023-07-02T11:03:29;20.80;86.30
6841;DHT22;3458;53.678;14.080;2023-07-02T11:05:55;20.80;88.10
6841;DHT22;3458;53.678;14.080;2023-07-02T11:08:21;20.90;85.80
6841;DHT22;3458;53.678;14.080;2023-07-02T11:10:47;21.10;82.50
6841;DHT22;3458;53.678;14.080;2023-07-02T11:13:17;21.10;83.50
6841;DHT22;3458;53.678;14.080;2023-07-02T11:15:43;21.10;84.20
6841;DHT22;3458;53.678;14.080;2023-07-02T11:18:13;21.10;85.00
6841;DHT22;3458;53.678;14.080;2023-07-02T11:20:40;21.00;85.40
6841;DHT22;3458;53.678;14.080;2023-07-02T11:23:19;21.10;81.90
6841;DHT22;3458;53.678;14.080;2023-07-02T11:26:00;21.30;80.80
6841;DHT22;3458;53.678;14.080;2023-07-02T11:28:28;21.50;81.60
6841;DHT22;3458;53.678;14.080;2023-07-02T11:30:54;21.60;80.30
6841;DHT22;3458;53.678;14.080;2023-07-02T11:33:39;21.70;81.10
6841;DHT22;3458;53.678;14.080;2023-07-02T11:36:19;21.80;77.10
6841;DHT22;3458;53.678;14.080;2023-07-02T11:38:45;21.80;73.20
6841;DHT22;3458;53.678;14.080;2023-07-02T11:41:10;21.50;73.30
6841;DHT22;3458;53.678;14.080;2023-07-02T11:43:37;21.30;74.90
6841;DHT22;3458;53.678;14.080;2023-07-02T11:46:03;21.20;76.40
6841;DHT22;3458;53.678;14.080;2023-07-02T11:48:29;21.10;77.10
6841;DHT22;3458;53.678;14.080;2023-07-02T11:50:54;21.10;77.20
6841;DHT22;3458;53.678;14.080;2023-07-02T11:53:20;21.10;78.20
6841;DHT22;3458;53.678;14.080;2023-07-02T11:55:45;21.10;77.80
6841;DHT22;3458;53.678;14.080;2023-07-02T11:58:11;21.00;78.20
6841;DHT22;3458;53.678;14.080;2023-07-02T12:00:36;20.90;78.50
6841;DHT22;3458;53.678;14.080;2023-07-02T12:03:02;20.90;78.40
6841;DHT22;3458;53.678;14.080;2023-07-02T12:05:27;20.80;77.80
6841;DHT22;3458;53.678;14.080;2023-07-02T12:07:53;20.70;79.30
6841;DHT22;3458;53.678;14.080;2023-07-02T12:10:18;21.10;79.30
6841;DHT22;3458;53.678;14.080;2023-07-02T12:12:44;21.50;77.30
6841;DHT22;3458;53.678;14.080;2023-07-02T12:15:10;21.80;75.40
6841;DHT22;3458;53.678;14.080;2023-07-02T12:17:35;21.90;73.10
6841;DHT22;3458;53.678;14.080;2023-07-02T12:20:01;22.00;71.80
6841;DHT22;3458;53.678;14.080;2023-07-02T12:22:26;22.00;67.80
6841;DHT22;3458;53.678;14.080;2023-07-02T12:24:52;22.10;66.10
6841;DHT22;3458;53.678;14.080;2023-07-02T12:27:21;22.40;63.40
6841;DHT22;3458;53.678;14.080;2023-07-02T12:29:46;22.70;63.80
6841;DHT22;3458;53.678;14.080;2023-07-02T12:32:14;23.10;63.00
6841;DHT22;3458;53.678;14.080;2023-07-02T12:34:39;23.40;61.20
6841;DHT22;3458;53.678;14.080;2023-07-02T12:37:05;23.60;61.70
6841;DHT22;3458;53.678;14.080;2023-07-02T12:39:30;23.50;63.00
6841;DHT22;3458;53.678;14.080;2023-07-02T12:41:56;23.20;61.90
6841;DHT22;3458;53.678;14.080;2023-07-02T12:44:22;23.40;61.30
6841;DHT22;3458;53.678;14.080;2023-07-02T12:46:47;23.80;63.70
6841;DHT22;3458;53.678;14.080;2023-07-02T12:49:12;24.20;63.30
6841;DHT22;3458;53.678;14.080;2023-07-02T12:51:38;24.50;63.10
6841;DHT22;3458;53.678;14.080;2023-07-02T12:54:04;24.80;59.60
6841;DHT22;3458;53.678;14.080;2023-07-02T12:56:29;24.50;59.60
6841;DHT22;3458;53.678;14.080;2023-07-02T12:58:55;24.10;59.10
6841;DHT22;3458;53.678;14.080;2023-07-02T13:01:20;23.80;59.30
6841;DHT22;3458;53.678;14.080;2023-07-02T13:03:47;24.10;60.00
6841;DHT22;3458;53.678;14.080;2023-07-02T13:06:13;24.30;58.20
6841;DHT22;3458;53.678;14.080;2023-07-02T13:08:39;23.90;58.30
6841;DHT22;3458;53.678;14.080;2023-07-02T13:11:04;23.40;56.50
6841;DHT22;3458;53.678;14.080;2023-07-02T13:13:30;22.80;56.60
6841;DHT22;3458;53.678;14.080;2023-07-02T13:15:56;22.70;57.50
6841;DHT22;3458;53.678;14.080;2023-07-02T13:18:21;22.50;58.40
6841;DHT22;3458;53.678;14.080;2023-07-02T13:20:47;22.70;58.00
6841;DHT22;3458;53.678;14.080;2023-07-02T13:23:12;22.60;59.10
6841;DHT22;3458;53.678;14.080;2023-07-02T13:25:38;22.50;58.90
6841;DHT22;3458;53.678;14.080;2023-07-02T13:28:03;22.70;59.20
6841;DHT22;3458;53.678;14.080;2023-07-02T13:30:29;23.10;59.40
6841;DHT22;3458;53.678;14.080;2023-07-02T13:32:56;23.90;57.20
6841;DHT22;3458;53.678;14.080;2023-07-02T13:35:22;24.40;55.90
6841;DHT22;3458;53.678;14.080;2023-07-02T13:37:48;24.50;54.70
6841;DHT22;3458;53.678;14.080;2023-07-02T13:40:14;24.60;54.30
6841;DHT22;3458;53.678;14.080;2023-07-02T13:42:41;24.50;53.80
6841;DHT22;3458;53.678;14.080;2023-07-02T13:45:08;24.10;54.20
6841;DHT22;3458;53.678;14.080;2023-07-02T13:47:34;23.40;55.70
6841;DHT22;3458;53.678;14.080;2023-07-02T13:50:00;22.90;56.10
6841;DHT22;3458;53.678;14.080;2023-07-02T13:52:26;23.50;56.30
6841;DHT22;3458;53.678;14.080;2023-07-02T13:54:51;24.30;53.30
6841;DHT22;3458;53.678;14.080;2023-07-02T13:57:17;24.90;52.90
6841;DHT22;3458;53.678;14.080;2023-07-02T13:59:42;25.40;51.40
6841;DHT22;3458;53.678;14.080;2023-07-02T14:02:08;25.80;49.90
6841;DHT22;3458;53.678;14.080;2023-07-02T14:04:33;25.90;49.50
6841;DHT22;3458;53.678;14.080;2023-07-02T14:06:59;26.30;47.70
6841;DHT22;3458;53.678;14.080;2023-07-02T14:09:24;26.40;48.30
6841;DHT22;3458;53.678;14.080;2023-07-02T14:11:50;26.60;47.10
6841;DHT22;3458;53.678;14.080;2023-07-02T14:14:15;26.70;47.40
6841;DHT22;3458;53.678;14.080;2023-07-02T14:16:41;26.30;45.80
6841;DHT22;3458;53.678;14.080;2023-07-02T14:19:06;25.60;47.00
6841;DHT22;3458;53.678;14.080;2023-07-02T14:21:32;25.10;47.80
6841;DHT22;3458;53.678;14.080;2023-07-02T14:23:58;25.30;48.10
6841;DHT22;3458;53.678;14.080;2023-07-02T14:26:24;25.60;47.80
6841;DHT22;3458;53.678;14.080;2023-07-02T14:28:49;25.90;47.40
6841;DHT22;3458;53.678;14.080;2023-07-02T14:31:15;25.90;46.10
6841;DHT22;3458;53.678;14.080;2023-07-02T14:33:40;25.80;44.90
6841;DHT22;3458;53.678;14.080;2023-07-02T14:36:07;25.00;46.20
6841;DHT22;3458;53.678;14.080;2023-07-02T14:38:33;24.40;48.00
6841;DHT22;3458;53.678;14.080;2023-07-02T14:40:59;23.90;49.80
6841;DHT22;3458;53.678;14.080;2023-07-02T14:43:27;23.60;50.50
6841;DHT22;3458;53.678;14.080;2023-07-02T14:45:55;23.40;50.70
6841;DHT22;3458;53.678;14.080;2023-07-02T14:48:21;24.20;50.30
6841;DHT22;3458;53.678;14.080;2023-07-02T14:50:52;24.50;49.00
6841;DHT22;3458;53.678;14.080;2023-07-02T14:53:19;25.10;48.20
6841;DHT22;3458;53.678;14.080;2023-07-02T14:55:45;25.90;46.70
6841;DHT22;3458;53.678;14.080;2023-07-02T14:58:12;26.10;47.00
6841;DHT22;3458;53.678;14.080;2023-07-02T15:00:48;25.80;45.80
6841;DHT22;3458;53.678;14.080;2023-07-02T15:03:14;24.90;45.80
6841;DHT22;3458;53.678;14.080;2023-07-02T15:05:40;24.00;47.30
6841;DHT22;3458;53.678;14.080;2023-07-02T15:08:07;23.60;48.00
6841;DHT22;3458;53.678;14.080;2023-07-02T15:10:33;23.30;49.40
6841;DHT22;3458;53.678;14.080;2023-07-02T15:12:59;23.10;49.10
6841;DHT22;3458;53.678;14.080;2023-07-02T15:15:25;23.00;49.60
6841;DHT22;3458;53.678;14.080;2023-07-02T15:17:50;22.90;48.40
6841;DHT22;3458;53.678;14.080;2023-07-02T15:20:16;23.10;48.20
6841;DHT22;3458;53.678;14.080;2023-07-02T15:22:41;24.30;46.80
6841;DHT22;3458;53.678;14.080;2023-07-02T15:25:07;25.30;45.70
6841;DHT22;3458;53.678;14.080;2023-07-02T15:27:33;25.50;43.30
6841;DHT22;3458;53.678;14.080;2023-07-02T15:29:58;25.50;42.90
6841;DHT22;3458;53.678;14.080;2023-07-02T15:32:24;26.00;42.40
6841;DHT22;3458;53.678;14.080;2023-07-02T15:34:50;26.40;41.70
6841;DHT22;3458;53.678;14.080;2023-07-02T15:37:15;26.40;40.90
6841;DHT22;3458;53.678;14.080;2023-07-02T15:39:42;26.10;41.10
6841;DHT22;3458;53.678;14.080;2023-07-02T15:42:07;25.50;42.40
6841;DHT22;3458;53.678;14.080;2023-07-02T15:44:33;25.10;42.80